Terminal Aerodrome Forecast
Issued by NWS Pittsburgh, PA

Current Version | Previous Version | Graphics & Text | Print | Product List | Glossary On
Versions: 1 2 3 4 5 6 7 8 9 10 11 12 13 14 15 16 17 18 19 20 21 22 23 24 25 26 27 28 29
580
FTUS41 KPBZ 180855 AAA
TAFPIT
TAF AMD
KPIT 180855Z 1809/1912 00000KT P6SM SKC
     FM181000 00000KT 5SM BR SKC
      TEMPO 1811/1813 2SM BR
     FM181300 00000KT P6SM SCT035
     FM181700 VRB03KT P6SM BKN045
     FM190000 VRB03KT P6SM SCT150=

USA.gov is the U.S. government's official web portal to all federal, state and local government web resources and services.